sensor_id;sensor_type;location;lat;lon;timestamp;temperature;humidity
48043;DHT22;33988;47.992;8.820;2023-08-17T00:02:17;26.40;52.40
48043;DHT22;33988;47.992;8.820;2023-08-17T00:04:44;26.40;52.40
48043;DHT22;33988;47.992;8.820;2023-08-17T00:07:16;26.40;52.50
48043;DHT22;33988;47.992;8.820;2023-08-17T00:09:43;26.40;52.50
48043;DHT22;33988;47.992;8.820;2023-08-17T00:12:12;26.40;52.50
48043;DHT22;33988;47.992;8.820;2023-08-17T00:14:41;26.40;52.50
48043;DHT22;33988;47.992;8.820;2023-08-17T00:17:10;26.40;52.50
48043;DHT22;33988;47.992;8.820;2023-08-17T00:19:37;26.30;52.50
48043;DHT22;33988;47.992;8.820;2023-08-17T00:22:07;26.30;52.50
48043;DHT22;33988;47.992;8.820;2023-08-17T00:24:34;26.30;52.60
48043;DHT22;33988;47.992;8.820;2023-08-17T00:27:01;26.30;52.60
48043;DHT22;33988;47.992;8.820;2023-08-17T00:29:27;26.20;52.50
48043;DHT22;33988;47.992;8.820;2023-08-17T00:31:54;26.20;52.50
48043;DHT22;33988;47.992;8.820;2023-08-17T00:34:21;26.20;52.50
48043;DHT22;33988;47.992;8.820;2023-08-17T00:36:51;26.20;52.50
48043;DHT22;33988;47.992;8.820;2023-08-17T00:39:20;26.20;52.50
48043;DHT22;33988;47.992;8.820;2023-08-17T00:41:47;26.10;52.50
48043;DHT22;33988;47.992;8.820;2023-08-17T00:44:16;26.10;52.50
48043;DHT22;33988;47.992;8.820;2023-08-17T00:46:43;26.10;52.60
48043;DHT22;33988;47.992;8.820;2023-08-17T00:49:13;26.10;52.50
48043;DHT22;33988;47.992;8.820;2023-08-17T00:51:40;26.10;52.60
48043;DHT22;33988;47.992;8.820;2023-08-17T00:54:07;26.10;52.60
48043;DHT22;33988;47.992;8.820;2023-08-17T00:56:37;26.10;52.60
48043;DHT22;33988;47.992;8.820;2023-08-17T00:59:04;26.10;52.70
48043;DHT22;33988;47.992;8.820;2023-08-17T01:01:34;26.00;52.60
48043;DHT22;33988;47.992;8.820;2023-08-17T01:04:02;26.00;52.60
48043;DHT22;33988;47.992;8.820;2023-08-17T01:06:31;26.00;52.60
48043;DHT22;33988;47.992;8.820;2023-08-17T01:08:58;26.00;52.60
48043;DHT22;33988;47.992;8.820;2023-08-17T01:11:36;25.90;52.60
48043;DHT22;33988;47.992;8.820;2023-08-17T01:14:29;25.90;52.70
48043;DHT22;33988;47.992;8.820;2023-08-17T01:17:09;25.80;52.80
48043;DHT22;33988;47.992;8.820;2023-08-17T01:19:39;25.80;52.60
48043;DHT22;33988;47.992;8.820;2023-08-17T01:22:08;25.80;52.60
48043;DHT22;33988;47.992;8.820;2023-08-17T01:24:40;25.80;52.70
48043;DHT22;33988;47.992;8.820;2023-08-17T01:27:14;25.80;52.70
48043;DHT22;33988;47.992;8.820;2023-08-17T01:29:41;25.80;52.70
48043;DHT22;33988;47.992;8.820;2023-08-17T01:38:07;25.70;52.90
48043;DHT22;33988;47.992;8.820;2023-08-17T01:40:50;25.70;53.00
48043;DHT22;33988;47.992;8.820;2023-08-17T01:43:20;25.70;53.00
48043;DHT22;33988;47.992;8.820;2023-08-17T01:45:50;25.70;53.00
48043;DHT22;33988;47.992;8.820;2023-08-17T01:48:19;25.70;53.10
48043;DHT22;33988;47.992;8.820;2023-08-17T01:50:46;25.70;53.10
48043;DHT22;33988;47.992;8.820;2023-08-17T01:53:13;25.70;53.10
48043;DHT22;33988;47.992;8.820;2023-08-17T01:55:40;25.60;53.10
48043;DHT22;33988;47.992;8.820;2023-08-17T01:58:07;25.70;53.10
48043;DHT22;33988;47.992;8.820;2023-08-17T02:00:34;25.60;53.20
48043;DHT22;33988;47.992;8.820;2023-08-17T02:03:03;25.60;53.20
48043;DHT22;33988;47.992;8.820;2023-08-17T02:05:30;25.60;53.20
48043;DHT22;33988;47.992;8.820;2023-08-17T02:07:58;25.60;53.20
48043;DHT22;33988;47.992;8.820;2023-08-17T02:10:27;25.60;53.40
48043;DHT22;33988;47.992;8.820;2023-08-17T02:12:54;25.50;53.30
48043;DHT22;33988;47.992;8.820;2023-08-17T02:15:41;25.60;53.40
48043;DHT22;33988;47.992;8.820;2023-08-17T02:18:13;25.50;53.40
48043;DHT22;33988;47.992;8.820;2023-08-17T02:20:40;25.50;53.40
48043;DHT22;33988;47.992;8.820;2023-08-17T02:23:07;25.50;53.40
48043;DHT22;33988;47.992;8.820;2023-08-17T02:25:37;25.50;53.40
48043;DHT22;33988;47.992;8.820;2023-08-17T02:28:05;25.50;53.40
48043;DHT22;33988;47.992;8.820;2023-08-17T02:30:32;25.50;53.40
48043;DHT22;33988;47.992;8.820;2023-08-17T02:33:01;25.50;53.40
48043;DHT22;33988;47.992;8.820;2023-08-17T02:35:31;25.50;53.40
48043;DHT22;33988;47.992;8.820;2023-08-17T02:37:58;25.50;53.30
48043;DHT22;33988;47.992;8.820;2023-08-17T02:40:25;25.50;53.30
48043;DHT22;33988;47.992;8.820;2023-08-17T02:42:52;25.50;53.30
48043;DHT22;33988;47.992;8.820;2023-08-17T02:45:21;25.50;53.40
48043;DHT22;33988;47.992;8.820;2023-08-17T02:47:50;25.50;53.40
48043;DHT22;33988;47.992;8.820;2023-08-17T02:50:17;25.40;53.40
48043;DHT22;33988;47.992;8.820;2023-08-17T02:52:44;25.40;53.50
48043;DHT22;33988;47.992;8.820;2023-08-17T02:55:14;25.40;53.50
48043;DHT22;33988;47.992;8.820;2023-08-17T02:57:40;25.40;53.50
48043;DHT22;33988;47.992;8.820;2023-08-17T03:00:08;25.40;53.80
48043;DHT22;33988;47.992;8.820;2023-08-17T03:02:37;25.40;54.20
48043;DHT22;33988;47.992;8.820;2023-08-17T03:05:04;25.30;53.50
48043;DHT22;33988;47.992;8.820;2023-08-17T03:07:34;25.40;53.60
48043;DHT22;33988;47.992;8.820;2023-08-17T03:10:03;25.40;53.60
48043;DHT22;33988;47.992;8.820;2023-08-17T03:12:33;25.30;53.50
48043;DHT22;33988;47.992;8.820;2023-08-17T03:15:00;25.30;53.50
48043;DHT22;33988;47.992;8.820;2023-08-17T03:17:27;25.30;53.60
48043;DHT22;33988;47.992;8.820;2023-08-17T03:19:54;25.30;53.60
48043;DHT22;33988;47.992;8.820;2023-08-17T03:22:22;25.30;53.60
48043;DHT22;33988;47.992;8.820;2023-08-17T03:24:48;25.30;53.60
48043;DHT22;33988;47.992;8.820;2023-08-17T03:27:15;25.30;53.60
48043;DHT22;33988;47.992;8.820;2023-08-17T03:29:45;25.20;53.50
48043;DHT22;33988;47.992;8.820;2023-08-17T03:32:14;25.20;53.50
48043;DHT22;33988;47.992;8.820;2023-08-17T03:34:41;25.20;53.50
48043;DHT22;33988;47.992;8.820;2023-08-17T03:37:08;25.20;53.50
48043;DHT22;33988;47.992;8.820;2023-08-17T03:39:35;25.20;53.50
48043;DHT22;33988;47.992;8.820;2023-08-17T03:42:04;25.20;53.50
48043;DHT22;33988;47.992;8.820;2023-08-17T03:44:31;25.20;53.40
48043;DHT22;33988;47.992;8.820;2023-08-17T03:46:58;25.20;53.50
48043;DHT22;33988;47.992;8.820;2023-08-17T03:49:25;25.20;53.50
48043;DHT22;33988;47.992;8.820;2023-08-17T03:51:55;25.10;53.50
48043;DHT22;33988;47.992;8.820;2023-08-17T03:54:21;25.10;53.60
48043;DHT22;33988;47.992;8.820;2023-08-17T03:56:49;25.10;53.60
48043;DHT22;33988;47.992;8.820;2023-08-17T03:59:15;25.10;53.70
48043;DHT22;33988;47.992;8.820;2023-08-17T04:01:42;25.00;53.70
48043;DHT22;33988;47.992;8.820;2023-08-17T04:04:10;25.00;53.80
48043;DHT22;33988;47.992;8.820;2023-08-17T04:06:39;25.00;53.80
48043;DHT22;33988;47.992;8.820;2023-08-17T04:09:09;25.00;53.80
48043;DHT22;33988;47.992;8.820;2023-08-17T04:11:36;25.00;53.80
48043;DHT22;33988;47.992;8.820;2023-08-17T04:14:06;25.00;53.80
48043;DHT22;33988;47.992;8.820;2023-08-17T04:16:33;24.90;54.40
48043;DHT22;33988;47.992;8.820;2023-08-17T04:19:01;25.00;53.80
48043;DHT22;33988;47.992;8.820;2023-08-17T04:21:30;25.00;53.90
48043;DHT22;33988;47.992;8.820;2023-08-17T04:24:00;24.90;53.90
48043;DHT22;33988;47.992;8.820;2023-08-17T04:26:26;24.90;54.00
48043;DHT22;33988;47.992;8.820;2023-08-17T04:28:56;24.90;54.00
48043;DHT22;33988;47.992;8.820;2023-08-17T04:31:23;24.90;54.10
48043;DHT22;33988;47.992;8.820;2023-08-17T04:33:51;24.90;54.00
48043;DHT22;33988;47.992;8.820;2023-08-17T04:36:20;24.90;54.10
48043;DHT22;33988;47.992;8.820;2023-08-17T04:38:50;24.90;54.10
48043;DHT22;33988;47.992;8.820;2023-08-17T04:41:17;24.90;54.10
48043;DHT22;33988;47.992;8.820;2023-08-17T04:43:48;24.90;54.10
48043;DHT22;33988;47.992;8.820;2023-08-17T04:46:18;24.80;54.10
48043;DHT22;33988;47.992;8.820;2023-08-17T04:48:49;24.80;54.10
48043;DHT22;33988;47.992;8.820;2023-08-17T04:51:16;24.80;54.20
48043;DHT22;33988;47.992;8.820;2023-08-17T04:53:46;24.80;54.20
48043;DHT22;33988;47.992;8.820;2023-08-17T04:56:13;24.80;54.20
48043;DHT22;33988;47.992;8.820;2023-08-17T04:58:41;24.80;54.20
48043;DHT22;33988;47.992;8.820;2023-08-17T05:01:08;24.80;54.20
48043;DHT22;33988;47.992;8.820;2023-08-17T05:03:37;24.80;54.20
48043;DHT22;33988;47.992;8.820;2023-08-17T05:06:05;24.80;54.20
48043;DHT22;33988;47.992;8.820;2023-08-17T05:08:34;24.80;54.30
48043;DHT22;33988;47.992;8.820;2023-08-17T05:11:01;24.80;54.40
48043;DHT22;33988;47.992;8.820;2023-08-17T05:13:30;24.80;54.30
48043;DHT22;33988;47.992;8.820;2023-08-17T05:16:00;24.80;54.40
48043;DHT22;33988;47.992;8.820;2023-08-17T05:18:29;24.80;54.50
48043;DHT22;33988;47.992;8.820;2023-08-17T05:20:56;24.80;54.50
48043;DHT22;33988;47.992;8.820;2023-08-17T05:23:25;24.80;54.60
48043;DHT22;33988;47.992;8.820;2023-08-17T05:25:52;24.80;54.70
48043;DHT22;33988;47.992;8.820;2023-08-17T05:28:19;24.80;54.70
48043;DHT22;33988;47.992;8.820;2023-08-17T05:30:49;24.80;54.80
48043;DHT22;33988;47.992;8.820;2023-08-17T05:33:16;24.70;54.80
48043;DHT22;33988;47.992;8.820;2023-08-17T05:35:43;24.80;54.90
48043;DHT22;33988;47.992;8.820;2023-08-17T05:38:13;24.70;54.90
48043;DHT22;33988;47.992;8.820;2023-08-17T05:40:42;24.70;54.90
48043;DHT22;33988;47.992;8.820;2023-08-17T05:43:09;24.70;55.00
48043;DHT22;33988;47.992;8.820;2023-08-17T05:45:36;24.70;55.00
48043;DHT22;33988;47.992;8.820;2023-08-17T05:48:05;24.70;55.00
48043;DHT22;33988;47.992;8.820;2023-08-17T05:50:33;24.70;55.00
48043;DHT22;33988;47.992;8.820;2023-08-17T05:53:02;24.70;55.00
48043;DHT22;33988;47.992;8.820;2023-08-17T05:55:29;24.70;55.00
48043;DHT22;33988;47.992;8.820;2023-08-17T05:57:56;24.70;55.00
48043;DHT22;33988;47.992;8.820;2023-08-17T06:00:23;24.70;55.00
48043;DHT22;33988;47.992;8.820;2023-08-17T06:02:50;24.80;55.10
48043;DHT22;33988;47.992;8.820;2023-08-17T06:05:18;24.80;55.20
48043;DHT22;33988;47.992;8.820;2023-08-17T06:07:50;24.80;55.20
48043;DHT22;33988;47.992;8.820;2023-08-17T06:10:17;24.80;55.30
48043;DHT22;33988;47.992;8.820;2023-08-17T06:12:46;24.80;55.40
48043;DHT22;33988;47.992;8.820;2023-08-17T06:15:13;24.80;55.40
48043;DHT22;33988;47.992;8.820;2023-08-17T06:17:40;24.80;55.50
48043;DHT22;33988;47.992;8.820;2023-08-17T06:20:08;24.80;55.50
48043;DHT22;33988;47.992;8.820;2023-08-17T06:22:39;24.90;55.50
48043;DHT22;33988;47.992;8.820;2023-08-17T06:25:06;24.60;55.50
48043;DHT22;33988;47.992;8.820;2023-08-17T06:27:36;24.90;55.40
48043;DHT22;33988;47.992;8.820;2023-08-17T06:30:06;25.00;55.40
48043;DHT22;33988;47.992;8.820;2023-08-17T06:32:33;25.00;55.50
48043;DHT22;33988;47.992;8.820;2023-08-17T06:35:00;25.00;55.60
48043;DHT22;33988;47.992;8.820;2023-08-17T06:37:27;25.00;55.60
48043;DHT22;33988;47.992;8.820;2023-08-17T06:39:55;25.00;55.60
48043;DHT22;33988;47.992;8.820;2023-08-17T06:42:22;25.10;55.60
48043;DHT22;33988;47.992;8.820;2023-08-17T06:44:52;25.10;55.60
48043;DHT22;33988;47.992;8.820;2023-08-17T06:47:19;25.10;55.60
48043;DHT22;33988;47.992;8.820;2023-08-17T06:49:46;25.20;55.70
48043;DHT22;33988;47.992;8.820;2023-08-17T06:52:12;25.20;55.70
48043;DHT22;33988;47.992;8.820;2023-08-17T06:54:39;25.20;55.80
48043;DHT22;33988;47.992;8.820;2023-08-17T06:57:08;25.20;55.80
48043;DHT22;33988;47.992;8.820;2023-08-17T06:59:38;25.30;56.00
48043;DHT22;33988;47.992;8.820;2023-08-17T07:02:05;25.30;56.00
48043;DHT22;33988;47.992;8.820;2023-08-17T07:04:32;25.30;56.00
48043;DHT22;33988;47.992;8.820;2023-08-17T07:06:59;25.30;56.20
48043;DHT22;33988;47.992;8.820;2023-08-17T07:09:31;25.40;56.30
48043;DHT22;33988;47.992;8.820;2023-08-17T07:12:00;25.40;56.50
48043;DHT22;33988;47.992;8.820;2023-08-17T07:14:32;25.50;56.70
48043;DHT22;33988;47.992;8.820;2023-08-17T07:17:06;25.60;56.90
48043;DHT22;33988;47.992;8.820;2023-08-17T07:19:33;25.70;57.00
48043;DHT22;33988;47.992;8.820;2023-08-17T07:22:20;25.80;57.00
48043;DHT22;33988;47.992;8.820;2023-08-17T07:24:49;25.90;57.20
48043;DHT22;33988;47.992;8.820;2023-08-17T07:27:16;26.00;57.50
48043;DHT22;33988;47.992;8.820;2023-08-17T07:29:43;26.20;57.70
48043;DHT22;33988;47.992;8.820;2023-08-17T07:32:16;26.30;57.90
48043;DHT22;33988;47.992;8.820;2023-08-17T07:34:43;26.50;57.90
48043;DHT22;33988;47.992;8.820;2023-08-17T07:37:12;26.70;57.80
48043;DHT22;33988;47.992;8.820;2023-08-17T07:39:49;26.90;57.60
48043;DHT22;33988;47.992;8.820;2023-08-17T07:42:17;27.20;57.40
48043;DHT22;33988;47.992;8.820;2023-08-17T07:44:44;27.40;57.20
48043;DHT22;33988;47.992;8.820;2023-08-17T07:47:11;27.70;57.10
48043;DHT22;33988;47.992;8.820;2023-08-17T07:49:38;27.90;57.00
48043;DHT22;33988;47.992;8.820;2023-08-17T07:52:05;28.10;56.80
48043;DHT22;33988;47.992;8.820;2023-08-17T07:54:32;28.30;56.60
48043;DHT22;33988;47.992;8.820;2023-08-17T07:57:00;28.40;56.40
48043;DHT22;33988;47.992;8.820;2023-08-17T07:59:29;28.60;56.20
48043;DHT22;33988;47.992;8.820;2023-08-17T08:01:56;28.80;55.80
48043;DHT22;33988;47.992;8.820;2023-08-17T08:04:25;29.00;55.70
48043;DHT22;33988;47.992;8.820;2023-08-17T08:06:52;29.20;55.50
48043;DHT22;33988;47.992;8.820;2023-08-17T08:09:21;29.30;55.10
48043;DHT22;33988;47.992;8.820;2023-08-17T08:11:48;29.40;54.80
48043;DHT22;33988;47.992;8.820;2023-08-17T08:14:15;29.50;54.50
48043;DHT22;33988;47.992;8.820;2023-08-17T08:16:43;29.60;54.30
48043;DHT22;33988;47.992;8.820;2023-08-17T08:19:09;29.70;54.10
48043;DHT22;33988;47.992;8.820;2023-08-17T08:21:39;29.80;54.00
48043;DHT22;33988;47.992;8.820;2023-08-17T08:24:06;29.90;53.90
48043;DHT22;33988;47.992;8.820;2023-08-17T08:26:50;30.00;53.70
48043;DHT22;33988;47.992;8.820;2023-08-17T08:29:17;30.10;53.50
48043;DHT22;33988;47.992;8.820;2023-08-17T08:31:46;30.10;53.30
48043;DHT22;33988;47.992;8.820;2023-08-17T08:34:13;30.20;53.40
48043;DHT22;33988;47.992;8.820;2023-08-17T08:36:40;30.30;53.40
48043;DHT22;33988;47.992;8.820;2023-08-17T08:39:12;30.30;53.00
48043;DHT22;33988;47.992;8.820;2023-08-17T08:41:40;30.40;53.20
48043;DHT22;33988;47.992;8.820;2023-08-17T08:44:07;30.50;53.60
48043;DHT22;33988;47.992;8.820;2023-08-17T08:46:40;30.50;53.50
48043;DHT22;33988;47.992;8.820;2023-08-17T08:49:11;30.50;53.10
48043;DHT22;33988;47.992;8.820;2023-08-17T08:51:44;30.60;52.90
48043;DHT22;33988;47.992;8.820;2023-08-17T08:54:13;30.60;52.80
48043;DHT22;33988;47.992;8.820;2023-08-17T08:56:45;30.70;52.80
48043;DHT22;33988;47.992;8.820;2023-08-17T08:59:14;30.70;52.40
48043;DHT22;33988;47.992;8.820;2023-08-17T09:01:42;30.70;52.00
48043;DHT22;33988;47.992;8.820;2023-08-17T09:04:09;30.80;51.80
48043;DHT22;33988;47.992;8.820;2023-08-17T09:06:39;30.80;51.70
48043;DHT22;33988;47.992;8.820;2023-08-17T09:09:10;30.90;51.80
48043;DHT22;33988;47.992;8.820;2023-08-17T09:11:40;30.90;51.70
48043;DHT22;33988;47.992;8.820;2023-08-17T09:14:13;30.90;51.80
48043;DHT22;33988;47.992;8.820;2023-08-17T09:16:40;31.00;52.00
48043;DHT22;33988;47.992;8.820;2023-08-17T09:19:09;31.10;51.90
48043;DHT22;33988;47.992;8.820;2023-08-17T09:21:39;31.10;51.40
48043;DHT22;33988;47.992;8.820;2023-08-17T09:24:07;31.20;51.70
48043;DHT22;33988;47.992;8.820;2023-08-17T09:26:34;31.20;51.40
48043;DHT22;33988;47.992;8.820;2023-08-17T09:29:17;31.30;51.40
48043;DHT22;33988;47.992;8.820;2023-08-17T09:31:46;31.30;51.50
48043;DHT22;33988;47.992;8.820;2023-08-17T09:34:18;31.40;51.50
48043;DHT22;33988;47.992;8.820;2023-08-17T09:36:46;31.50;51.50
48043;DHT22;33988;47.992;8.820;2023-08-17T09:39:16;31.60;51.50
48043;DHT22;33988;47.992;8.820;2023-08-17T09:41:45;31.60;51.50
48043;DHT22;33988;47.992;8.820;2023-08-17T09:44:12;31.70;51.40
48043;DHT22;33988;47.992;8.820;2023-08-17T09:46:44;31.80;51.40
48043;DHT22;33988;47.992;8.820;2023-08-17T09:49:11;31.80;51.10
48043;DHT22;33988;47.992;8.820;2023-08-17T09:51:42;31.90;51.20
48043;DHT22;33988;47.992;8.820;2023-08-17T09:54:23;31.90;51.00
48043;DHT22;33988;47.992;8.820;2023-08-17T09:56:53;31.90;50.10
48043;DHT22;33988;47.992;8.820;2023-08-17T09:59:23;32.00;50.50
48043;DHT22;33988;47.992;8.820;2023-08-17T10:01:52;32.10;50.80
48043;DHT22;33988;47.992;8.820;2023-08-17T10:04:23;32.10;50.40
48043;DHT22;33988;47.992;8.820;2023-08-17T10:07:00;32.20;50.50
48043;DHT22;33988;47.992;8.820;2023-08-17T10:09:32;32.20;50.30
48043;DHT22;33988;47.992;8.820;2023-08-17T10:12:13;32.30;50.10
48043;DHT22;33988;47.992;8.820;2023-08-17T10:14:48;32.30;49.20
48043;DHT22;33988;47.992;8.820;2023-08-17T10:17:25;32.40;49.20
48043;DHT22;33988;47.992;8.820;2023-08-17T10:19:58;32.50;48.90
48043;DHT22;33988;47.992;8.820;2023-08-17T10:22:36;32.50;48.90
48043;DHT22;33988;47.992;8.820;2023-08-17T10:25:10;32.50;49.00
48043;DHT22;33988;47.992;8.820;2023-08-17T10:27:43;32.60;48.70
48043;DHT22;33988;47.992;8.820;2023-08-17T10:30:11;32.70;48.60
48043;DHT22;33988;47.992;8.820;2023-08-17T10:32:39;32.70;48.80
48043;DHT22;33988;47.992;8.820;2023-08-17T10:35:13;32.80;48.80
48043;DHT22;33988;47.992;8.820;2023-08-17T10:37:40;32.90;48.30
48043;DHT22;33988;47.992;8.820;2023-08-17T10:40:10;32.90;47.80
48043;DHT22;33988;47.992;8.820;2023-08-17T10:42:41;32.90;47.30
48043;DHT22;33988;47.992;8.820;2023-08-17T10:45:28;33.00;46.90
48043;DHT22;33988;47.992;8.820;2023-08-17T10:50:36;33.00;46.30
48043;DHT22;33988;47.992;8.820;2023-08-17T10:53:11;33.10;46.50
48043;DHT22;33988;47.992;8.820;2023-08-17T10:55:40;33.10;47.00
48043;DHT22;33988;47.992;8.820;2023-08-17T10:58:08;33.20;46.60
48043;DHT22;33988;47.992;8.820;2023-08-17T11:00:39;33.20;46.60
48043;DHT22;33988;47.992;8.820;2023-08-17T11:03:08;33.30;46.60
48043;DHT22;33988;47.992;8.820;2023-08-17T11:05:49;33.40;46.30
48043;DHT22;33988;47.992;8.820;2023-08-17T11:08:23;33.40;46.00
48043;DHT22;33988;47.992;8.820;2023-08-17T11:11:13;33.40;46.10
48043;DHT22;33988;47.992;8.820;2023-08-17T11:13:44;33.50;45.70
48043;DHT22;33988;47.992;8.820;2023-08-17T11:16:13;33.60;45.70
48043;DHT22;33988;47.992;8.820;2023-08-17T11:18:47;33.60;45.30
48043;DHT22;33988;47.992;8.820;2023-08-17T11:21:18;33.60;44.90
48043;DHT22;33988;47.992;8.820;2023-08-17T11:23:46;33.60;45.10
48043;DHT22;33988;47.992;8.820;2023-08-17T11:26:19;33.60;45.50
48043;DHT22;33988;47.992;8.820;2023-08-17T11:28:49;33.60;45.10
48043;DHT22;33988;47.992;8.820;2023-08-17T11:31:16;33.70;45.30
48043;DHT22;33988;47.992;8.820;2023-08-17T11:33:44;33.70;44.90
48043;DHT22;33988;47.992;8.820;2023-08-17T11:36:14;33.70;44.80
48043;DHT22;33988;47.992;8.820;2023-08-17T11:38:47;33.70;44.80
48043;DHT22;33988;47.992;8.820;2023-08-17T11:41:17;33.70;44.90
48043;DHT22;33988;47.992;8.820;2023-08-17T11:43:45;33.70;45.00
48043;DHT22;33988;47.992;8.820;2023-08-17T11:46:19;33.60;44.70
48043;DHT22;33988;47.992;8.820;2023-08-17T11:48:53;33.60;44.40
48043;DHT22;33988;47.992;8.820;2023-08-17T11:51:30;33.50;44.40
48043;DHT22;33988;47.992;8.820;2023-08-17T11:53:59;33.30;44.10
48043;DHT22;33988;47.992;8.820;2023-08-17T11:56:30;33.20;43.70
48043;DHT22;33988;47.992;8.820;2023-08-17T11:58:57;33.00;43.20
48043;DHT22;33988;47.992;8.820;2023-08-17T12:01:32;32.80;43.20
48043;DHT22;33988;47.992;8.820;2023-08-17T12:04:03;32.50;43.20
48043;DHT22;33988;47.992;8.820;2023-08-17T12:06:31;32.20;43.40
48043;DHT22;33988;47.992;8.820;2023-08-17T12:08:58;31.90;43.40
48043;DHT22;33988;47.992;8.820;2023-08-17T12:11:25;31.60;43.60
48043;DHT22;33988;47.992;8.820;2023-08-17T12:13:54;31.40;43.90
48043;DHT22;33988;47.992;8.820;2023-08-17T12:16:22;31.10;44.30
48043;DHT22;33988;47.992;8.820;2023-08-17T12:18:52;30.90;44.90
48043;DHT22;33988;47.992;8.820;2023-08-17T12:21:21;30.70;45.30
48043;DHT22;33988;47.992;8.820;2023-08-17T12:23:50;30.40;45.50
48043;DHT22;33988;47.992;8.820;2023-08-17T12:26:23;30.20;45.90
48043;DHT22;33988;47.992;8.820;2023-08-17T12:28:52;30.00;46.60
48043;DHT22;33988;47.992;8.820;2023-08-17T12:31:25;29.80;47.00
48043;DHT22;33988;47.992;8.820;2023-08-17T12:33:55;29.60;47.40
48043;DHT22;33988;47.992;8.820;2023-08-17T12:36:24;29.40;47.50
48043;DHT22;33988;47.992;8.820;2023-08-17T12:38:51;29.30;48.00
48043;DHT22;33988;47.992;8.820;2023-08-17T12:41:20;29.10;48.40
48043;DHT22;33988;47.992;8.820;2023-08-17T12:43:49;29.10;48.80
48043;DHT22;33988;47.992;8.820;2023-08-17T12:46:20;29.00;49.00
48043;DHT22;33988;47.992;8.820;2023-08-17T12:48:47;28.90;49.30
48043;DHT22;33988;47.992;8.820;2023-08-17T12:51:14;28.80;49.50
48043;DHT22;33988;47.992;8.820;2023-08-17T12:53:41;28.70;49.70
48043;DHT22;33988;47.992;8.820;2023-08-17T12:56:15;28.60;50.00
48043;DHT22;33988;47.992;8.820;2023-08-17T12:58:42;28.60;50.20
48043;DHT22;33988;47.992;8.820;2023-08-17T13:01:11;28.50;50.30
48043;DHT22;33988;47.992;8.820;2023-08-17T13:03:40;28.50;50.60
48043;DHT22;33988;47.992;8.820;2023-08-17T13:06:10;28.50;51.00
48043;DHT22;33988;47.992;8.820;2023-08-17T13:08:36;28.40;51.20
48043;DHT22;33988;47.992;8.820;2023-08-17T13:11:03;28.40;51.50
48043;DHT22;33988;47.992;8.820;2023-08-17T13:13:30;28.40;51.70
48043;DHT22;33988;47.992;8.820;2023-08-17T13:15:57;28.30;51.90
48043;DHT22;33988;47.992;8.820;2023-08-17T13:18:27;28.30;52.00
48043;DHT22;33988;47.992;8.820;2023-08-17T13:20:56;28.30;52.10
48043;DHT22;33988;47.992;8.820;2023-08-17T13:23:30;28.30;52.20
48043;DHT22;33988;47.992;8.820;2023-08-17T13:25:57;28.30;52.50
48043;DHT22;33988;47.992;8.820;2023-08-17T13:28:24;28.30;52.60
48043;DHT22;33988;47.992;8.820;2023-08-17T13:30:54;28.30;52.80
48043;DHT22;33988;47.992;8.820;2023-08-17T13:33:42;28.30;52.60
48043;DHT22;33988;47.992;8.820;2023-08-17T13:36:13;28.30;52.60
48043;DHT22;33988;47.992;8.820;2023-08-17T13:38:40;28.30;52.70
48043;DHT22;33988;47.992;8.820;2023-08-17T13:41:11;28.30;52.70
48043;DHT22;33988;47.992;8.820;2023-08-17T13:43:38;28.30;52.90
48043;DHT22;33988;47.992;8.820;2023-08-17T13:46:05;28.30;53.30
48043;DHT22;33988;47.992;8.820;2023-08-17T13:48:32;28.30;53.40
48043;DHT22;33988;47.992;8.820;2023-08-17T13:51:02;28.40;53.60
48043;DHT22;33988;47.992;8.820;2023-08-17T13:53:29;28.40;53.90
48043;DHT22;33988;47.992;8.820;2023-08-17T13:55:56;28.50;54.10
48043;DHT22;33988;47.992;8.820;2023-08-17T13:58:23;28.50;54.20
48043;DHT22;33988;47.992;8.820;2023-08-17T14:00:54;28.60;54.40
48043;DHT22;33988;47.992;8.820;2023-08-17T14:03:21;28.70;54.50
48043;DHT22;33988;47.992;8.820;2023-08-17T14:05:49;28.70;54.40
48043;DHT22;33988;47.992;8.820;2023-08-17T14:08:21;28.80;54.40
48043;DHT22;33988;47.992;8.820;2023-08-17T14:10:50;28.80;54.50
48043;DHT22;33988;47.992;8.820;2023-08-17T14:13:19;28.90;54.50
48043;DHT22;33988;47.992;8.820;2023-08-17T14:15:46;29.00;54.60
48043;DHT22;33988;47.992;8.820;2023-08-17T14:18:13;29.00;54.50
48043;DHT22;33988;47.992;8.820;2023-08-17T14:20:40;29.10;54.70
48043;DHT22;33988;47.992;8.820;2023-08-17T14:23:07;29.10;54.40
48043;DHT22;33988;47.992;8.820;2023-08-17T14:25:34;29.20;54.60
48043;DHT22;33988;47.992;8.820;2023-08-17T14:28:04;29.20;54.50
48043;DHT22;33988;47.992;8.820;2023-08-17T14:30:32;29.20;54.40
48043;DHT22;33988;47.992;8.820;2023-08-17T14:33:03;29.30;54.70
48043;DHT22;33988;47.992;8.820;2023-08-17T14:35:33;29.30;54.60
48043;DHT22;33988;47.992;8.820;2023-08-17T14:38:00;29.40;54.60
48043;DHT22;33988;47.992;8.820;2023-08-17T14:40:30;29.40;54.60
48043;DHT22;33988;47.992;8.820;2023-08-17T14:43:00;29.40;54.70
48043;DHT22;33988;47.992;8.820;2023-08-17T14:45:31;29.40;54.90
48043;DHT22;33988;47.992;8.820;2023-08-17T14:48:00;29.50;54.90
48043;DHT22;33988;47.992;8.820;2023-08-17T14:50:31;29.50;55.00
48043;DHT22;33988;47.992;8.820;2023-08-17T14:53:02;29.50;55.10
48043;DHT22;33988;47.992;8.820;2023-08-17T14:55:33;29.60;55.20
48043;DHT22;33988;47.992;8.820;2023-08-17T14:58:03;29.60;55.10
48043;DHT22;33988;47.992;8.820;2023-08-17T15:00:33;29.60;55.20
48043;DHT22;33988;47.992;8.820;2023-08-17T15:03:00;29.60;55.30
48043;DHT22;33988;47.992;8.820;2023-08-17T15:05:28;29.70;55.30
48043;DHT22;33988;47.992;8.820;2023-08-17T15:07:55;29.70;55.40
48043;DHT22;33988;47.992;8.820;2023-08-17T15:10:22;29.70;55.50
48043;DHT22;33988;47.992;8.820;2023-08-17T15:12:54;29.80;55.50
48043;DHT22;33988;47.992;8.820;2023-08-17T15:15:21;29.80;55.40
48043;DHT22;33988;47.992;8.820;2023-08-17T15:17:48;29.80;55.40
48043;DHT22;33988;47.992;8.820;2023-08-17T15:20:15;29.90;55.60
48043;DHT22;33988;47.992;8.820;2023-08-17T15:22:44;29.90;55.80
48043;DHT22;33988;47.992;8.820;2023-08-17T15:25:11;29.90;55.90
48043;DHT22;33988;47.992;8.820;2023-08-17T15:27:38;29.90;55.90
48043;DHT22;33988;47.992;8.820;2023-08-17T15:30:08;29.90;55.80
48043;DHT22;33988;47.992;8.820;2023-08-17T15:32:35;30.00;55.80
48043;DHT22;33988;47.992;8.820;2023-08-17T15:35:02;29.90;55.60
48043;DHT22;33988;47.992;8.820;2023-08-17T15:37:30;30.00;55.90
48043;DHT22;33988;47.992;8.820;2023-08-17T15:39:57;30.00;56.00
48043;DHT22;33988;47.992;8.820;2023-08-17T15:42:24;30.00;56.00
48043;DHT22;33988;47.992;8.820;2023-08-17T15:44:51;30.00;56.00
48043;DHT22;33988;47.992;8.820;2023-08-17T15:47:18;30.00;56.10
48043;DHT22;33988;47.992;8.820;2023-08-17T15:49:45;30.00;56.20
48043;DHT22;33988;47.992;8.820;2023-08-17T15:52:14;30.00;57.00